sensor_id;sensor_type;location;lat;lon;timestamp;P1;durP1;ratioP1;P2;durP2;ratioP2
52848;SDS011;38714;53.180;5.812;2022-12-16T00:00:23;17.07;;;5.67;;
52848;SDS011;38714;53.180;5.812;2022-12-16T00:02:50;14.03;;;6.10;;
52848;SDS011;38714;53.180;5.812;2022-12-16T00:05:16;11.07;;;6.47;;
52848;SDS011;38714;53.180;5.812;2022-12-16T00:07:44;10.27;;;5.87;;
52848;SDS011;38714;53.180;5.812;2022-12-16T00:10:10;16.63;;;6.07;;
52848;SDS011;38714;53.180;5.812;2022-12-16T00:12:36;7.30;;;5.03;;
52848;SDS011;38714;53.180;5.812;2022-12-16T00:15:01;8.10;;;5.37;;
52848;SDS011;38714;53.180;5.812;2022-12-16T00:17:27;5.53;;;4.83;;
52848;SDS011;38714;53.180;5.812;2022-12-16T00:19:53;7.23;;;4.77;;
52848;SDS011;38714;53.180;5.812;2022-12-16T00:22:18;9.40;;;4.30;;
52848;SDS011;38714;53.180;5.812;2022-12-16T00:24:44;7.33;;;4.53;;
52848;SDS011;38714;53.180;5.812;2022-12-16T00:27:09;5.73;;;3.50;;
52848;SDS011;38714;53.180;5.812;2022-12-16T00:29:35;9.97;;;4.80;;
52848;SDS011;38714;53.180;5.812;2022-12-16T00:32:01;6.83;;;4.67;;
52848;SDS011;38714;53.180;5.812;2022-12-16T00:34:26;5.97;;;4.07;;
52848;SDS011;38714;53.180;5.812;2022-12-16T00:36:52;7.43;;;4.60;;
52848;SDS011;38714;53.180;5.812;2022-12-16T00:39:18;5.93;;;3.17;;
52848;SDS011;38714;53.180;5.812;2022-12-16T00:41:44;7.70;;;4.53;;
52848;SDS011;38714;53.180;5.812;2022-12-16T00:44:11;14.07;;;5.23;;
52848;SDS011;38714;53.180;5.812;2022-12-16T00:46:37;8.03;;;5.83;;
52848;SDS011;38714;53.180;5.812;2022-12-16T00:49:04;7.67;;;3.97;;
52848;SDS011;38714;53.180;5.812;2022-12-16T00:51:29;10.73;;;3.97;;
52848;SDS011;38714;53.180;5.812;2022-12-16T00:53:55;5.50;;;4.13;;
52848;SDS011;38714;53.180;5.812;2022-12-16T00:56:21;6.17;;;3.20;;
52848;SDS011;38714;53.180;5.812;2022-12-16T00:58:47;4.70;;;3.17;;
52848;SDS011;38714;53.180;5.812;2022-12-16T01:01:12;6.50;;;3.37;;
52848;SDS011;38714;53.180;5.812;2022-12-16T01:03:38;3.60;;;2.60;;
52848;SDS011;38714;53.180;5.812;2022-12-16T01:06:10;6.10;;;3.57;;
52848;SDS011;38714;53.180;5.812;2022-12-16T01:08:41;5.50;;;2.67;;
52848;SDS011;38714;53.180;5.812;2022-12-16T01:13:40;4.33;;;3.70;;
52848;SDS011;38714;53.180;5.812;2022-12-16T01:16:05;4.30;;;3.27;;
52848;SDS011;38714;53.180;5.812;2022-12-16T01:18:31;6.97;;;3.53;;
52848;SDS011;38714;53.180;5.812;2022-12-16T01:21:03;4.20;;;3.30;;
52848;SDS011;38714;53.180;5.812;2022-12-16T01:23:30;3.53;;;3.23;;
52848;SDS011;38714;53.180;5.812;2022-12-16T01:25:57;5.10;;;3.63;;
52848;SDS011;38714;53.180;5.812;2022-12-16T01:28:24;8.27;;;3.87;;
52848;SDS011;38714;53.180;5.812;2022-12-16T01:30:53;10.90;;;3.07;;
52848;SDS011;38714;53.180;5.812;2022-12-16T01:33:21;6.53;;;3.63;;
52848;SDS011;38714;53.180;5.812;2022-12-16T01:35:47;4.03;;;3.70;;
52848;SDS011;38714;53.180;5.812;2022-12-16T01:38:13;3.40;;;3.10;;
52848;SDS011;38714;53.180;5.812;2022-12-16T01:40:39;8.27;;;3.37;;
52848;SDS011;38714;53.180;5.812;2022-12-16T01:43:11;6.13;;;2.83;;
52848;SDS011;38714;53.180;5.812;2022-12-16T01:45:38;3.10;;;2.20;;
52848;SDS011;38714;53.180;5.812;2022-12-16T01:48:21;1.83;;;1.73;;
52848;SDS011;38714;53.180;5.812;2022-12-16T01:51:03;5.50;;;2.33;;
52848;SDS011;38714;53.180;5.812;2022-12-16T01:53:45;6.13;;;3.03;;
52848;SDS011;38714;53.180;5.812;2022-12-16T01:56:13;7.17;;;3.47;;
52848;SDS011;38714;53.180;5.812;2022-12-16T01:58:41;8.00;;;4.43;;
52848;SDS011;38714;53.180;5.812;2022-12-16T02:01:07;8.90;;;3.60;;
52848;SDS011;38714;53.180;5.812;2022-12-16T02:03:34;6.03;;;3.17;;
52848;SDS011;38714;53.180;5.812;2022-12-16T02:06:00;21.17;;;4.47;;
52848;SDS011;38714;53.180;5.812;2022-12-16T02:08:27;4.77;;;4.20;;
52848;SDS011;38714;53.180;5.812;2022-12-16T02:14:34;3.20;;;2.37;;
52848;SDS011;38714;53.180;5.812;2022-12-16T02:17:09;3.77;;;2.43;;
52848;SDS011;38714;53.180;5.812;2022-12-16T02:20:04;4.73;;;2.87;;
52848;SDS011;38714;53.180;5.812;2022-12-16T02:28:28;3.37;;;3.07;;
52848;SDS011;38714;53.180;5.812;2022-12-16T02:31:40;2.42;;;2.15;;
52848;SDS011;38714;53.180;5.812;2022-12-16T02:34:36;2.92;;;2.47;;
52848;SDS011;38714;53.180;5.812;2022-12-16T02:39:52;2.13;;;1.80;;
52848;SDS011;38714;53.180;5.812;2022-12-16T02:45:25;6.77;;;3.77;;
52848;SDS011;38714;53.180;5.812;2022-12-16T02:47:53;2.07;;;1.93;;
52848;SDS011;38714;53.180;5.812;2022-12-16T02:50:20;4.73;;;2.53;;
52848;SDS011;38714;53.180;5.812;2022-12-16T02:52:46;6.33;;;2.60;;
52848;SDS011;38714;53.180;5.812;2022-12-16T02:55:12;9.30;;;2.67;;
52848;SDS011;38714;53.180;5.812;2022-12-16T03:06:12;3.97;;;3.37;;
52848;SDS011;38714;53.180;5.812;2022-12-16T03:08:41;11.50;;;4.23;;
52848;SDS011;38714;53.180;5.812;2022-12-16T03:11:11;6.20;;;4.03;;
52848;SDS011;38714;53.180;5.812;2022-12-16T03:13:38;12.07;;;3.50;;
52848;SDS011;38714;53.180;5.812;2022-12-16T03:16:07;3.83;;;2.67;;
52848;SDS011;38714;53.180;5.812;2022-12-16T03:18:37;5.53;;;3.17;;
52848;SDS011;38714;53.180;5.812;2022-12-16T03:21:06;9.33;;;4.80;;
52848;SDS011;38714;53.180;5.812;2022-12-16T03:23:42;4.30;;;3.90;;
52848;SDS011;38714;53.180;5.812;2022-12-16T03:26:24;11.13;;;5.37;;
52848;SDS011;38714;53.180;5.812;2022-12-16T03:37:04;3.50;;;2.60;;
52848;SDS011;38714;53.180;5.812;2022-12-16T03:42:00;5.97;;;3.77;;
52848;SDS011;38714;53.180;5.812;2022-12-16T03:44:27;7.23;;;3.53;;
52848;SDS011;38714;53.180;5.812;2022-12-16T03:46:53;2.17;;;2.00;;
52848;SDS011;38714;53.180;5.812;2022-12-16T03:49:19;4.07;;;3.07;;
52848;SDS011;38714;53.180;5.812;2022-12-16T03:51:46;4.23;;;2.80;;
52848;SDS011;38714;53.180;5.812;2022-12-16T03:54:12;5.50;;;2.77;;
52848;SDS011;38714;53.180;5.812;2022-12-16T03:56:37;3.67;;;3.13;;
52848;SDS011;38714;53.180;5.812;2022-12-16T03:59:03;3.77;;;3.33;;
52848;SDS011;38714;53.180;5.812;2022-12-16T04:01:28;9.03;;;4.60;;
52848;SDS011;38714;53.180;5.812;2022-12-16T04:03:54;5.67;;;4.03;;
52848;SDS011;38714;53.180;5.812;2022-12-16T04:06:20;3.70;;;2.43;;
52848;SDS011;38714;53.180;5.812;2022-12-16T04:08:45;5.07;;;4.67;;
52848;SDS011;38714;53.180;5.812;2022-12-16T04:11:12;5.70;;;4.07;;
52848;SDS011;38714;53.180;5.812;2022-12-16T04:13:57;11.73;;;4.00;;
52848;SDS011;38714;53.180;5.812;2022-12-16T04:16:42;24.00;;;5.97;;
52848;SDS011;38714;53.180;5.812;2022-12-16T04:19:30;6.13;;;4.10;;
52848;SDS011;38714;53.180;5.812;2022-12-16T04:22:18;12.70;;;4.10;;
52848;SDS011;38714;53.180;5.812;2022-12-16T04:25:16;7.20;;;4.33;;
52848;SDS011;38714;53.180;5.812;2022-12-16T04:27:46;7.70;;;3.87;;
52848;SDS011;38714;53.180;5.812;2022-12-16T04:30:13;7.37;;;4.27;;
52848;SDS011;38714;53.180;5.812;2022-12-16T04:32:43;7.53;;;5.37;;
52848;SDS011;38714;53.180;5.812;2022-12-16T04:35:48;6.13;;;4.23;;
52848;SDS011;38714;53.180;5.812;2022-12-16T04:38:32;7.40;;;3.43;;
52848;SDS011;38714;53.180;5.812;2022-12-16T04:41:17;7.67;;;4.17;;
52848;SDS011;38714;53.180;5.812;2022-12-16T04:44:01;8.13;;;6.00;;
52848;SDS011;38714;53.180;5.812;2022-12-16T04:46:46;6.73;;;4.90;;
52848;SDS011;38714;53.180;5.812;2022-12-16T04:49:31;6.80;;;3.63;;
52848;SDS011;38714;53.180;5.812;2022-12-16T04:52:15;3.97;;;3.13;;
52848;SDS011;38714;53.180;5.812;2022-12-16T04:54:59;4.40;;;3.97;;
52848;SDS011;38714;53.180;5.812;2022-12-16T04:57:47;9.83;;;4.10;;
52848;SDS011;38714;53.180;5.812;2022-12-16T05:00:42;6.97;;;4.50;;
52848;SDS011;38714;53.180;5.812;2022-12-16T05:03:26;5.53;;;3.63;;
52848;SDS011;38714;53.180;5.812;2022-12-16T05:06:11;9.93;;;4.43;;
52848;SDS011;38714;53.180;5.812;2022-12-16T05:08:55;7.07;;;4.97;;
52848;SDS011;38714;53.180;5.812;2022-12-16T05:11:40;5.93;;;3.47;;
52848;SDS011;38714;53.180;5.812;2022-12-16T05:14:24;4.67;;;3.67;;
52848;SDS011;38714;53.180;5.812;2022-12-16T05:17:08;4.17;;;2.77;;
52848;SDS011;38714;53.180;5.812;2022-12-16T05:19:52;3.97;;;3.67;;
52848;SDS011;38714;53.180;5.812;2022-12-16T05:22:36;5.00;;;2.97;;
52848;SDS011;38714;53.180;5.812;2022-12-16T05:25:20;3.53;;;2.70;;
52848;SDS011;38714;53.180;5.812;2022-12-16T05:28:04;4.57;;;3.03;;
52848;SDS011;38714;53.180;5.812;2022-12-16T05:30:49;4.20;;;3.73;;
52848;SDS011;38714;53.180;5.812;2022-12-16T05:33:33;3.40;;;2.20;;
52848;SDS011;38714;53.180;5.812;2022-12-16T05:36:17;8.17;;;4.37;;
52848;SDS011;38714;53.180;5.812;2022-12-16T05:39:02;8.10;;;2.87;;
52848;SDS011;38714;53.180;5.812;2022-12-16T05:41:46;2.70;;;2.37;;
52848;SDS011;38714;53.180;5.812;2022-12-16T05:44:30;6.23;;;3.17;;
52848;SDS011;38714;53.180;5.812;2022-12-16T05:47:14;4.13;;;3.27;;
52848;SDS011;38714;53.180;5.812;2022-12-16T05:49:59;5.73;;;3.90;;
52848;SDS011;38714;53.180;5.812;2022-12-16T05:52:52;4.40;;;3.17;;
52848;SDS011;38714;53.180;5.812;2022-12-16T05:55:38;3.17;;;2.03;;
52848;SDS011;38714;53.180;5.812;2022-12-16T05:58:22;6.47;;;3.80;;
52848;SDS011;38714;53.180;5.812;2022-12-16T06:01:07;3.90;;;3.43;;
52848;SDS011;38714;53.180;5.812;2022-12-16T06:03:51;3.43;;;2.40;;
52848;SDS011;38714;53.180;5.812;2022-12-16T06:06:35;6.83;;;3.27;;
52848;SDS011;38714;53.180;5.812;2022-12-16T06:09:20;2.83;;;2.63;;
52848;SDS011;38714;53.180;5.812;2022-12-16T06:12:04;3.83;;;3.03;;
52848;SDS011;38714;53.180;5.812;2022-12-16T06:14:49;4.73;;;2.30;;
52848;SDS011;38714;53.180;5.812;2022-12-16T06:17:33;3.37;;;2.97;;
52848;SDS011;38714;53.180;5.812;2022-12-16T06:20:18;5.30;;;4.33;;
52848;SDS011;38714;53.180;5.812;2022-12-16T06:23:02;5.23;;;4.50;;
52848;SDS011;38714;53.180;5.812;2022-12-16T06:25:46;3.77;;;2.83;;
52848;SDS011;38714;53.180;5.812;2022-12-16T06:28:30;3.80;;;3.33;;
52848;SDS011;38714;53.180;5.812;2022-12-16T06:31:14;5.20;;;4.17;;
52848;SDS011;38714;53.180;5.812;2022-12-16T06:33:59;10.90;;;3.53;;
52848;SDS011;38714;53.180;5.812;2022-12-16T06:36:43;7.50;;;3.87;;
52848;SDS011;38714;53.180;5.812;2022-12-16T06:39:28;6.43;;;3.10;;
52848;SDS011;38714;53.180;5.812;2022-12-16T06:42:12;4.33;;;3.37;;
52848;SDS011;38714;53.180;5.812;2022-12-16T06:44:57;8.43;;;4.13;;
52848;SDS011;38714;53.180;5.812;2022-12-16T06:47:41;3.30;;;2.27;;
52848;SDS011;38714;53.180;5.812;2022-12-16T06:50:26;4.57;;;3.87;;
52848;SDS011;38714;53.180;5.812;2022-12-16T06:53:11;8.17;;;3.23;;
52848;SDS011;38714;53.180;5.812;2022-12-16T06:55:55;5.90;;;4.60;;
52848;SDS011;38714;53.180;5.812;2022-12-16T06:58:40;6.00;;;3.60;;
52848;SDS011;38714;53.180;5.812;2022-12-16T07:01:24;8.63;;;3.80;;
52848;SDS011;38714;53.180;5.812;2022-12-16T07:04:08;9.60;;;6.03;;
52848;SDS011;38714;53.180;5.812;2022-12-16T07:06:52;5.97;;;4.17;;
52848;SDS011;38714;53.180;5.812;2022-12-16T07:09:36;8.77;;;5.20;;
52848;SDS011;38714;53.180;5.812;2022-12-16T07:12:21;7.00;;;5.60;;
52848;SDS011;38714;53.180;5.812;2022-12-16T07:15:05;7.73;;;5.83;;
52848;SDS011;38714;53.180;5.812;2022-12-16T07:17:50;12.20;;;6.80;;
52848;SDS011;38714;53.180;5.812;2022-12-16T07:20:34;13.60;;;7.70;;
52848;SDS011;38714;53.180;5.812;2022-12-16T07:23:18;11.73;;;7.33;;
52848;SDS011;38714;53.180;5.812;2022-12-16T07:26:02;10.20;;;7.23;;
52848;SDS011;38714;53.180;5.812;2022-12-16T07:28:47;11.50;;;6.60;;
52848;SDS011;38714;53.180;5.812;2022-12-16T07:31:31;13.57;;;9.87;;
52848;SDS011;38714;53.180;5.812;2022-12-16T07:34:15;11.93;;;9.10;;
52848;SDS011;38714;53.180;5.812;2022-12-16T07:36:59;17.27;;;9.27;;
52848;SDS011;38714;53.180;5.812;2022-12-16T07:39:43;21.77;;;14.30;;
52848;SDS011;38714;53.180;5.812;2022-12-16T07:42:27;22.17;;;10.30;;
52848;SDS011;38714;53.180;5.812;2022-12-16T07:45:12;16.53;;;12.40;;
52848;SDS011;38714;53.180;5.812;2022-12-16T07:47:56;15.53;;;11.37;;
52848;SDS011;38714;53.180;5.812;2022-12-16T07:50:40;13.97;;;10.33;;
52848;SDS011;38714;53.180;5.812;2022-12-16T07:53:25;18.23;;;11.17;;
52848;SDS011;38714;53.180;5.812;2022-12-16T07:56:09;23.43;;;12.87;;
52848;SDS011;38714;53.180;5.812;2022-12-16T07:58:54;21.47;;;13.00;;
52848;SDS011;38714;53.180;5.812;2022-12-16T08:01:38;23.20;;;11.93;;
52848;SDS011;38714;53.180;5.812;2022-12-16T08:04:23;35.13;;;11.83;;
52848;SDS011;38714;53.180;5.812;2022-12-16T08:07:07;22.60;;;11.80;;
52848;SDS011;38714;53.180;5.812;2022-12-16T08:09:52;21.50;;;11.30;;
52848;SDS011;38714;53.180;5.812;2022-12-16T08:12:36;17.40;;;9.30;;
52848;SDS011;38714;53.180;5.812;2022-12-16T08:15:20;23.03;;;10.07;;
52848;SDS011;38714;53.180;5.812;2022-12-16T08:18:04;18.97;;;10.73;;
52848;SDS011;38714;53.180;5.812;2022-12-16T08:20:49;16.83;;;13.17;;
52848;SDS011;38714;53.180;5.812;2022-12-16T08:23:33;32.17;;;12.07;;
52848;SDS011;38714;53.180;5.812;2022-12-16T08:26:17;18.80;;;10.97;;
52848;SDS011;38714;53.180;5.812;2022-12-16T08:29:02;11.37;;;9.13;;
52848;SDS011;38714;53.180;5.812;2022-12-16T08:31:47;9.30;;;7.90;;
52848;SDS011;38714;53.180;5.812;2022-12-16T08:34:31;14.00;;;8.17;;
52848;SDS011;38714;53.180;5.812;2022-12-16T08:37:15;8.37;;;6.37;;
52848;SDS011;38714;53.180;5.812;2022-12-16T08:39:59;11.07;;;7.00;;
52848;SDS011;38714;53.180;5.812;2022-12-16T08:42:44;6.93;;;5.33;;
52848;SDS011;38714;53.180;5.812;2022-12-16T08:45:28;9.53;;;6.80;;
52848;SDS011;38714;53.180;5.812;2022-12-16T08:48:13;10.03;;;6.07;;
52848;SDS011;38714;53.180;5.812;2022-12-16T08:51:00;11.23;;;7.80;;
52848;SDS011;38714;53.180;5.812;2022-12-16T08:53:46;8.47;;;6.37;;
52848;SDS011;38714;53.180;5.812;2022-12-16T08:56:30;9.63;;;7.03;;
52848;SDS011;38714;53.180;5.812;2022-12-16T08:59:14;14.13;;;8.43;;
52848;SDS011;38714;53.180;5.812;2022-12-16T09:01:58;15.00;;;9.07;;
52848;SDS011;38714;53.180;5.812;2022-12-16T09:04:43;11.27;;;6.93;;
52848;SDS011;38714;53.180;5.812;2022-12-16T09:07:27;12.60;;;9.47;;
52848;SDS011;38714;53.180;5.812;2022-12-16T09:10:11;13.13;;;9.37;;
52848;SDS011;38714;53.180;5.812;2022-12-16T09:13:05;12.53;;;11.23;;
52848;SDS011;38714;53.180;5.812;2022-12-16T09:15:56;15.90;;;10.80;;
52848;SDS011;38714;53.180;5.812;2022-12-16T09:18:41;16.87;;;11.83;;
52848;SDS011;38714;53.180;5.812;2022-12-16T09:21:25;17.30;;;10.27;;
52848;SDS011;38714;53.180;5.812;2022-12-16T09:24:10;25.57;;;14.17;;
52848;SDS011;38714;53.180;5.812;2022-12-16T09:26:54;19.20;;;13.20;;
52848;SDS011;38714;53.180;5.812;2022-12-16T09:29:38;11.80;;;10.23;;
52848;SDS011;38714;53.180;5.812;2022-12-16T09:32:22;12.93;;;10.17;;
52848;SDS011;38714;53.180;5.812;2022-12-16T09:35:06;12.60;;;10.43;;
52848;SDS011;38714;53.180;5.812;2022-12-16T09:37:51;14.83;;;10.90;;
52848;SDS011;38714;53.180;5.812;2022-12-16T09:40:36;13.87;;;10.00;;
52848;SDS011;38714;53.180;5.812;2022-12-16T09:52:33;18.53;;;10.77;;
52848;SDS011;38714;53.180;5.812;2022-12-16T09:55:36;18.10;;;10.53;;
52848;SDS011;38714;53.180;5.812;2022-12-16T09:58:25;16.97;;;10.00;;
52848;SDS011;38714;53.180;5.812;2022-12-16T10:01:23;18.40;;;9.90;;
52848;SDS011;38714;53.180;5.812;2022-12-16T10:04:09;17.57;;;12.20;;
52848;SDS011;38714;53.180;5.812;2022-12-16T10:06:56;13.30;;;9.77;;
52848;SDS011;38714;53.180;5.812;2022-12-16T10:09:46;16.70;;;12.57;;
52848;SDS011;38714;53.180;5.812;2022-12-16T10:12:51;26.00;;;18.37;;
52848;SDS011;38714;53.180;5.812;2022-12-16T10:22:06;19.67;;;13.47;;
52848;SDS011;38714;53.180;5.812;2022-12-16T10:24:54;26.60;;;18.42;;
52848;SDS011;38714;53.180;5.812;2022-12-16T10:27:52;32.37;;;18.30;;
52848;SDS011;38714;53.180;5.812;2022-12-16T10:30:58;29.40;;;17.40;;
52848;SDS011;38714;53.180;5.812;2022-12-16T10:33:44;43.73;;;17.83;;
52848;SDS011;38714;53.180;5.812;2022-12-16T10:36:31;27.07;;;16.10;;
52848;SDS011;38714;53.180;5.812;2022-12-16T10:45:12;39.53;;;21.50;;
52848;SDS011;38714;53.180;5.812;2022-12-16T10:48:09;32.38;;;18.33;;
52848;SDS011;38714;53.180;5.812;2022-12-16T10:50:54;31.70;;;21.33;;
52848;SDS011;38714;53.180;5.812;2022-12-16T10:53:38;30.63;;;23.73;;
52848;SDS011;38714;53.180;5.812;2022-12-16T10:56:27;30.43;;;21.60;;
52848;SDS011;38714;53.180;5.812;2022-12-16T10:59:33;25.27;;;18.60;;
52848;SDS011;38714;53.180;5.812;2022-12-16T11:02:22;32.50;;;21.33;;
52848;SDS011;38714;53.180;5.812;2022-12-16T11:11:12;29.03;;;22.43;;
52848;SDS011;38714;53.180;5.812;2022-12-16T11:14:15;37.00;;;22.67;;
52848;SDS011;38714;53.180;5.812;2022-12-16T11:20:07;31.08;;;22.77;;
52848;SDS011;38714;53.180;5.812;2022-12-16T11:23:20;34.37;;;25.37;;
52848;SDS011;38714;53.180;5.812;2022-12-16T11:26:09;30.73;;;22.00;;
52848;SDS011;38714;53.180;5.812;2022-12-16T11:32:15;53.47;;;26.07;;
52848;SDS011;38714;53.180;5.812;2022-12-16T11:35:04;36.53;;;27.50;;
52848;SDS011;38714;53.180;5.812;2022-12-16T11:37:55;31.30;;;21.10;;
52848;SDS011;38714;53.180;5.812;2022-12-16T11:40:41;35.17;;;22.77;;
52848;SDS011;38714;53.180;5.812;2022-12-16T11:43:26;35.83;;;25.10;;
52848;SDS011;38714;53.180;5.812;2022-12-16T11:46:13;33.47;;;22.77;;
52848;SDS011;38714;53.180;5.812;2022-12-16T11:49:05;34.40;;;21.60;;
52848;SDS011;38714;53.180;5.812;2022-12-16T11:52:15;36.13;;;24.07;;
52848;SDS011;38714;53.180;5.812;2022-12-16T11:55:20;37.00;;;23.37;;
52848;SDS011;38714;53.180;5.812;2022-12-16T12:00:55;30.47;;;21.43;;
52848;SDS011;38714;53.180;5.812;2022-12-16T12:03:45;31.03;;;21.23;;
52848;SDS011;38714;53.180;5.812;2022-12-16T12:06:47;39.13;;;23.03;;
52848;SDS011;38714;53.180;5.812;2022-12-16T12:09:34;38.15;;;21.85;;
52848;SDS011;38714;53.180;5.812;2022-12-16T12:12:31;32.37;;;22.77;;
52848;SDS011;38714;53.180;5.812;2022-12-16T12:15:33;30.20;;;25.13;;
52848;SDS011;38714;53.180;5.812;2022-12-16T12:18:39;28.50;;;19.53;;
52848;SDS011;38714;53.180;5.812;2022-12-16T12:21:59;39.53;;;25.00;;
52848;SDS011;38714;53.180;5.812;2022-12-16T12:24:46;32.10;;;22.90;;
52848;SDS011;38714;53.180;5.812;2022-12-16T12:27:48;30.20;;;22.57;;
52848;SDS011;38714;53.180;5.812;2022-12-16T12:30:52;36.45;;;22.92;;
52848;SDS011;38714;53.180;5.812;2022-12-16T12:34:21;35.60;;;22.83;;
52848;SDS011;38714;53.180;5.812;2022-12-16T12:37:25;33.47;;;22.23;;
52848;SDS011;38714;53.180;5.812;2022-12-16T12:46:38;37.70;;;25.00;;
52848;SDS011;38714;53.180;5.812;2022-12-16T12:49:46;38.10;;;21.47;;
52848;SDS011;38714;53.180;5.812;2022-12-16T12:55:25;45.07;;;25.67;;
52848;SDS011;38714;53.180;5.812;2022-12-16T12:58:19;37.27;;;23.47;;
52848;SDS011;38714;53.180;5.812;2022-12-16T13:01:04;43.40;;;27.40;;
52848;SDS011;38714;53.180;5.812;2022-12-16T13:03:56;44.03;;;26.53;;
52848;SDS011;38714;53.180;5.812;2022-12-16T13:06:49;42.80;;;27.27;;
52848;SDS011;38714;53.180;5.812;2022-12-16T13:09:38;36.77;;;23.73;;
52848;SDS011;38714;53.180;5.812;2022-12-16T13:15:09;35.47;;;25.03;;
52848;SDS011;38714;53.180;5.812;2022-12-16T13:20:46;34.70;;;22.80;;
52848;SDS011;38714;53.180;5.812;2022-12-16T13:23:31;38.60;;;24.70;;
52848;SDS011;38714;53.180;5.812;2022-12-16T13:26:23;46.00;;;26.10;;
52848;SDS011;38714;53.180;5.812;2022-12-16T13:29:22;41.63;;;24.73;;
52848;SDS011;38714;53.180;5.812;2022-12-16T13:35:13;33.27;;;22.37;;
52848;SDS011;38714;53.180;5.812;2022-12-16T13:38:04;34.03;;;22.37;;
52848;SDS011;38714;53.180;5.812;2022-12-16T13:41:03;41.67;;;22.63;;
52848;SDS011;38714;53.180;5.812;2022-12-16T13:43:58;42.73;;;24.47;;
52848;SDS011;38714;53.180;5.812;2022-12-16T13:46:49;45.03;;;25.93;;
52848;SDS011;38714;53.180;5.812;2022-12-16T13:52:41;34.00;;;23.20;;
52848;SDS011;38714;53.180;5.812;2022-12-16T13:55:38;37.17;;;23.40;;
52848;SDS011;38714;53.180;5.812;2022-12-16T14:01:40;36.80;;;23.93;;
52848;SDS011;38714;53.180;5.812;2022-12-16T14:04:39;39.93;;;25.13;;
52848;SDS011;38714;53.180;5.812;2022-12-16T14:07:27;32.43;;;22.73;;
52848;SDS011;38714;53.180;5.812;2022-12-16T14:13:27;36.83;;;23.33;;
52848;SDS011;38714;53.180;5.812;2022-12-16T14:25:54;38.30;;;23.37;;
52848;SDS011;38714;53.180;5.812;2022-12-16T14:28:40;41.07;;;24.70;;
52848;SDS011;38714;53.180;5.812;2022-12-16T14:31:29;37.00;;;23.73;;
52848;SDS011;38714;53.180;5.812;2022-12-16T14:34:18;35.60;;;25.77;;
52848;SDS011;38714;53.180;5.812;2022-12-16T14:37:17;32.37;;;23.63;;
52848;SDS011;38714;53.180;5.812;2022-12-16T14:40:17;37.00;;;22.70;;
52848;SDS011;38714;53.180;5.812;2022-12-16T14:43:03;35.57;;;22.67;;
52848;SDS011;38714;53.180;5.812;2022-12-16T14:45:58;35.47;;;23.13;;
52848;SDS011;38714;53.180;5.812;2022-12-16T14:48:44;32.10;;;23.27;;
52848;SDS011;38714;53.180;5.812;2022-12-16T14:51:31;39.40;;;20.83;;
52848;SDS011;38714;53.180;5.812;2022-12-16T14:54:35;34.03;;;22.07;;
52848;SDS011;38714;53.180;5.812;2022-12-16T14:57:23;34.42;;;22.73;;
52848;SDS011;38714;53.180;5.812;2022-12-16T15:06:05;29.17;;;21.43;;
52848;SDS011;38714;53.180;5.812;2022-12-16T15:09:00;36.45;;;23.48;;
52848;SDS011;38714;53.180;5.812;2022-12-16T15:11:46;32.13;;;20.90;;
52848;SDS011;38714;53.180;5.812;2022-12-16T15:14:34;31.00;;;20.03;;
52848;SDS011;38714;53.180;5.812;2022-12-16T15:17:28;32.70;;;21.90;;
52848;SDS011;38714;53.180;5.812;2022-12-16T15:20:25;44.53;;;23.10;;
52848;SDS011;38714;53.180;5.812;2022-12-16T15:23:17;29.50;;;19.90;;
52848;SDS011;38714;53.180;5.812;2022-12-16T15:26:05;24.33;;;18.53;;
52848;SDS011;38714;53.180;5.812;2022-12-16T15:28:49;26.60;;;18.63;;
52848;SDS011;38714;53.180;5.812;2022-12-16T15:31:34;35.37;;;21.80;;
52848;SDS011;38714;53.180;5.812;2022-12-16T15:46:16;31.70;;;19.67;;
52848;SDS011;38714;53.180;5.812;2022-12-16T15:49:00;28.23;;;20.33;;
52848;SDS011;38714;53.180;5.812;2022-12-16T15:51:46;34.43;;;22.87;;
52848;SDS011;38714;53.180;5.812;2022-12-16T15:54:31;29.87;;;21.17;;
52848;SDS011;38714;53.180;5.812;2022-12-16T15:57:25;29.67;;;16.07;;
52848;SDS011;38714;53.180;5.812;2022-12-16T16:00:17;28.13;;;19.10;;
52848;SDS011;38714;53.180;5.812;2022-12-16T16:03:02;33.03;;;17.92;;
52848;SDS011;38714;53.180;5.812;2022-12-16T16:05:46;27.60;;;19.57;;
52848;SDS011;38714;53.180;5.812;2022-12-16T16:08:31;33.10;;;19.60;;
52848;SDS011;38714;53.180;5.812;2022-12-16T16:11:15;26.10;;;20.23;;
52848;SDS011;38714;53.180;5.812;2022-12-16T16:13:59;33.00;;;22.93;;
52848;SDS011;38714;53.180;5.812;2022-12-16T16:16:44;29.33;;;20.13;;
52848;SDS011;38714;53.180;5.812;2022-12-16T16:19:28;32.57;;;21.13;;
52848;SDS011;38714;53.180;5.812;2022-12-16T16:22:13;32.30;;;21.07;;
52848;SDS011;38714;53.180;5.812;2022-12-16T16:24:59;33.47;;;21.40;;
52848;SDS011;38714;53.180;5.812;2022-12-16T16:27:44;30.10;;;19.23;;
52848;SDS011;38714;53.180;5.812;2022-12-16T16:30:28;36.93;;;21.87;;
52848;SDS011;38714;53.180;5.812;2022-12-16T16:33:12;31.77;;;19.40;;
52848;SDS011;38714;53.180;5.812;2022-12-16T16:35:57;33.30;;;17.17;;
52848;SDS011;38714;53.180;5.812;2022-12-16T16:38:41;35.33;;;19.97;;
52848;SDS011;38714;53.180;5.812;2022-12-16T16:41:25;28.50;;;18.40;;
52848;SDS011;38714;53.180;5.812;2022-12-16T16:44:10;28.83;;;19.20;;
52848;SDS011;38714;53.180;5.812;2022-12-16T16:46:54;36.90;;;22.80;;
52848;SDS011;38714;53.180;5.812;2022-12-16T16:49:40;38.77;;;21.80;;
52848;SDS011;38714;53.180;5.812;2022-12-16T16:52:29;31.97;;;22.47;;
52848;SDS011;38714;53.180;5.812;2022-12-16T16:55:23;42.27;;;21.17;;
52848;SDS011;38714;53.180;5.812;2022-12-16T16:58:23;24.90;;;20.73;;
52848;SDS011;38714;53.180;5.812;2022-12-16T17:01:13;35.05;;;23.02;;
52848;SDS011;38714;53.180;5.812;2022-12-16T17:04:00;31.73;;;19.23;;
52848;SDS011;38714;53.180;5.812;2022-12-16T17:06:44;31.50;;;18.87;;
52848;SDS011;38714;53.180;5.812;2022-12-16T17:09:28;35.10;;;20.80;;
52848;SDS011;38714;53.180;5.812;2022-12-16T17:12:23;28.87;;;18.57;;
52848;SDS011;38714;53.180;5.812;2022-12-16T17:18:04;35.10;;;21.27;;
52848;SDS011;38714;53.180;5.812;2022-12-16T17:20:48;40.23;;;21.37;;
52848;SDS011;38714;53.180;5.812;2022-12-16T17:23:33;35.97;;;21.47;;
52848;SDS011;38714;53.180;5.812;2022-12-16T17:26:17;37.23;;;21.07;;
52848;SDS011;38714;53.180;5.812;2022-12-16T17:29:02;29.50;;;21.50;;
52848;SDS011;38714;53.180;5.812;2022-12-16T17:31:47;33.07;;;22.17;;
52848;SDS011;38714;53.180;5.812;2022-12-16T17:34:31;39.90;;;22.07;;
52848;SDS011;38714;53.180;5.812;2022-12-16T17:37:15;27.47;;;16.50;;
52848;SDS011;38714;53.180;5.812;2022-12-16T17:40:00;27.70;;;16.33;;
52848;SDS011;38714;53.180;5.812;2022-12-16T17:42:44;33.87;;;19.47;;
52848;SDS011;38714;53.180;5.812;2022-12-16T17:45:28;29.43;;;17.67;;
52848;SDS011;38714;53.180;5.812;2022-12-16T17:48:13;25.27;;;17.30;;
52848;SDS011;38714;53.180;5.812;2022-12-16T17:50:57;31.47;;;18.10;;
52848;SDS011;38714;53.180;5.812;2022-12-16T17:53:44;30.10;;;19.27;;
52848;SDS011;38714;53.180;5.812;2022-12-16T17:56:29;14.47;;;12.27;;
52848;SDS011;38714;53.180;5.812;2022-12-16T17:59:13;22.10;;;13.93;;
52848;SDS011;38714;53.180;5.812;2022-12-16T18:01:57;39.57;;;14.57;;
52848;SDS011;38714;53.180;5.812;2022-12-16T18:04:42;17.03;;;11.93;;
52848;SDS011;38714;53.180;5.812;2022-12-16T18:07:26;27.43;;;15.37;;
52848;SDS011;38714;53.180;5.812;2022-12-16T18:10:10;45.10;;;19.67;;
52848;SDS011;38714;53.180;5.812;2022-12-16T18:12:54;82.60;;;23.30;;
52848;SDS011;38714;53.180;5.812;2022-12-16T18:15:40;276.53;;;45.97;;
52848;SDS011;38714;53.180;5.812;2022-12-16T18:18:24;476.17;;;66.20;;